Arraial do Cabo, Brazil
Current Conditions -  °F | °C
As of 3:00 AM on Wednesday 26 Nov 2014 (Local Time) from SBCB Reporting Station
Scattered Clouds Scattered Clouds  
Wind Chill: 77°   Ceiling: Unl
Heat Index: 78°   Visibility: 6mi
Dew Point: 75°   Wind: 12mph
Humidity: 94%   Direction: 50°NE
Pressure: 29.74"   Gusts: NA
Location:  22.97°S, 42.03°W
Report Text: SBCB 260500Z 05010KT 9999 SCT035 25/24 Q1007
Loading
Personal Weather Stations






























Interactive Weather Map New forecast layout! Learn more

10-Day Weather Forecast

Advertisements
Track Severe Weather on mobile